Time;durP1;ratioP1;P1;durP2;ratioP2;P2;SDS_P1;SDS_P2;PMS_P1;PMS_P2;Temp;Humidity;BMP_temperature;BMP_pressure;BME280_temperature;BME280_humidity;BME280_pressure;Samples;Min_cycle;Max_cycle;Signal;HPM_P1;HPM_P2
2023/05/15 00:01:20;;;;;;;10.53;6.33;;;11.10;88.40;;;;;;5033345;28;20444;-73
2023/05/15 00:03:46;;;;;;;12.30;6.60;;;11.00;88.90;;;;;;5034407;28;20415;-72
2023/05/15 00:06:12;;;;;;;9.67;6.50;;;11.00;88.90;;;;;;5037799;28;20826;-74
2023/05/15 00:08:37;;;;;;;10.87;5.80;;;11.00;89.20;;;;;;5034803;28;21153;-73
2023/05/15 00:11:03;;;;;;;9.43;5.67;;;11.00;89.60;;;;;;5034454;28;20191;-73
2023/05/15 00:13:29;;;;;;;11.20;6.70;;;11.10;89.70;;;;;;5035223;28;20554;-73
2023/05/15 00:15:54;;;;;;;10.83;5.50;;;11.10;89.70;;;;;;5035614;28;20585;-73
2023/05/15 00:18:20;;;;;;;9.33;6.50;;;11.10;89.90;;;;;;5034505;28;20209;-73
2023/05/15 00:20:46;;;;;;;9.20;6.27;;;11.10;90.00;;;;;;5033144;28;20185;-73
2023/05/15 00:23:11;;;;;;;8.27;5.23;;;11.20;89.70;;;;;;5039302;28;20209;-73
2023/05/15 00:25:37;;;;;;;9.10;5.23;;;11.30;89.20;;;;;;5032666;28;20200;-74
2023/05/15 00:28:02;;;;;;;8.43;5.83;;;11.30;88.70;;;;;;5033490;28;20188;-73
2023/05/15 00:30:28;;;;;;;10.00;6.17;;;11.30;88.60;;;;;;5033099;28;20660;-72
2023/05/15 00:32:54;;;;;;;12.07;6.97;;;11.30;88.60;;;;;;5029521;28;20690;-72
2023/05/15 00:35:19;;;;;;;9.50;6.10;;;11.20;88.30;;;;;;5032517;28;20190;-72
2023/05/15 00:37:45;;;;;;;8.07;5.53;;;11.20;88.60;;;;;;5041166;28;20652;-73
2023/05/15 00:40:17;;;;;;;9.53;5.87;;;11.30;87.60;;;;;;5036329;28;20234;-73
2023/05/15 00:42:43;;;;;;;10.50;6.47;;;11.20;87.30;;;;;;5033554;28;20460;-73
2023/05/15 00:45:10;;;;;;;9.10;5.73;;;11.20;87.70;;;;;;5033626;28;20613;-71
2023/05/15 00:47:39;;;;;;;8.10;5.70;;;11.20;87.80;;;;;;5033318;28;20415;-72
2023/05/15 00:50:05;;;;;;;9.27;6.20;;;11.30;87.80;;;;;;5031650;28;20416;-72
2023/05/15 00:52:31;;;;;;;9.70;6.77;;;11.30;87.60;;;;;;5031505;28;21134;-73
2023/05/15 00:54:57;;;;;;;10.80;6.23;;;11.30;87.80;;;;;;5031867;28;20545;-73
2023/05/15 00:57:24;;;;;;;9.67;6.30;;;11.30;88.00;;;;;;5039556;28;20510;-74
2023/05/15 00:59:51;;;;;;;10.00;6.13;;;11.40;88.10;;;;;;5036901;28;20656;-74
2023/05/15 01:02:20;;;;;;;9.50;5.60;;;11.40;87.80;;;;;;5032002;28;20470;-74
2023/05/15 01:04:45;;;;;;;8.10;5.50;;;11.50;86.90;;;;;;5033688;28;20467;-73
2023/05/15 01:07:12;;;;;;;9.93;6.40;;;11.50;86.60;;;;;;5032011;28;20794;-74
2023/05/15 01:09:43;;;;;;;7.37;5.17;;;11.50;86.80;;;;;;5032523;28;20181;-73
2023/05/15 01:12:10;;;;;;;7.67;5.30;;;11.50;87.10;;;;;;5035416;28;20486;-73
2023/05/15 01:14:36;;;;;;;10.60;6.40;;;11.50;87.10;;;;;;5035602;28;20432;-73
2023/05/15 01:17:01;;;;;;;8.23;5.17;;;11.60;87.10;;;;;;5031246;28;20851;-75
2023/05/15 01:19:28;;;;;;;8.27;4.97;;;11.60;87.10;;;;;;5031295;28;20208;-74
2023/05/15 01:22:05;;;;;;;8.50;5.30;;;11.60;87.40;;;;;;5028100;28;20471;-73
2023/05/15 01:24:42;;;;;;;11.77;5.90;;;11.60;87.80;;;;;;5037087;28;20472;-74
2023/05/15 01:27:19;;;;;;;8.20;5.60;;;11.70;87.70;;;;;;5034951;28;20429;-74
2023/05/15 01:30:27;;;;;;;7.43;5.33;;;11.70;87.10;;;;;;5043695;28;20987;-73
2023/05/15 01:33:23;;;;;;;10.47;6.17;;;11.60;87.10;;;;;;5032701;28;20485;-73
2023/05/15 01:36:00;;;;;;;9.70;5.87;;;11.60;87.10;;;;;;5027825;28;20503;-73
2023/05/15 01:38:43;;;;;;;9.20;5.73;;;11.60;87.10;;;;;;5039786;28;20415;-74
2023/05/15 01:41:15;;;;;;;12.50;6.00;;;11.60;87.10;;;;;;5035518;28;20424;-73
2023/05/15 01:43:44;;;;;;;10.10;6.23;;;11.60;87.00;;;;;;5037250;28;20542;-74
2023/05/15 01:46:16;;;;;;;8.40;5.57;;;11.60;86.90;;;;;;5034042;28;20477;-73
2023/05/15 01:48:44;;;;;;;11.37;5.50;;;11.40;86.90;;;;;;5040428;28;20424;-73
2023/05/15 01:51:12;;;;;;;9.17;5.93;;;11.50;87.00;;;;;;5034552;28;20443;-74
2023/05/15 01:53:39;;;;;;;7.80;5.53;;;11.50;86.90;;;;;;5039296;28;20416;-73
2023/05/15 01:56:08;;;;;;;9.97;5.53;;;11.50;86.50;;;;;;5031794;28;20455;-73
2023/05/15 01:58:35;;;;;;;9.53;5.70;;;11.40;86.50;;;;;;5038950;28;20460;-74
2023/05/15 02:01:02;;;;;;;10.97;5.60;;;11.40;86.80;;;;;;5031926;28;20419;-75
2023/05/15 02:03:32;;;;;;;8.17;5.20;;;11.50;86.60;;;;;;5031372;28;20442;-74
2023/05/15 02:05:57;;;;;;;9.90;5.10;;;11.50;85.70;;;;;;5030059;28;20835;-74
2023/05/15 02:08:24;;;;;;;9.57;6.00;;;11.30;86.00;;;;;;5031902;28;20538;-75
2023/05/15 02:10:51;;;;;;;9.33;5.70;;;11.20;86.60;;;;;;5038787;28;20816;-74
2023/05/15 02:13:18;;;;;;;10.60;6.57;;;11.20;86.80;;;;;;5040394;28;20434;-75
2023/05/15 02:15:43;;;;;;;8.53;5.33;;;11.10;87.10;;;;;;5037860;28;20458;-73
2023/05/15 02:18:10;;;;;;;10.80;5.53;;;11.20;87.60;;;;;;5031193;28;20428;-75
2023/05/15 02:20:35;;;;;;;10.37;5.83;;;11.20;87.00;;;;;;5037647;28;20559;-74
2023/05/15 02:23:01;;;;;;;9.27;5.20;;;11.20;86.90;;;;;;5034203;28;20456;-74
2023/05/15 02:25:37;;;;;;;10.27;5.63;;;11.10;87.10;;;;;;5049419;28;20204;-74
2023/05/15 02:28:05;;;;;;;8.07;5.20;;;11.10;87.10;;;;;;5037763;28;20181;-74
2023/05/15 02:30:35;;;;;;;10.00;5.70;;;11.00;87.30;;;;;;5033604;28;20452;-74
2023/05/15 02:33:22;;;;;;;9.20;5.97;;;11.10;87.60;;;;;;5036104;28;20463;-74
2023/05/15 02:35:57;;;;;;;9.90;5.43;;;11.10;87.70;;;;;;5035856;28;20423;-75
2023/05/15 02:38:28;;;;;;;10.67;5.80;;;11.10;88.00;;;;;;5035014;28;20454;-73
2023/05/15 02:40:56;;;;;;;9.60;5.97;;;11.20;88.30;;;;;;5038088;28;20428;-73
2023/05/15 02:43:22;;;;;;;10.87;6.20;;;11.20;88.30;;;;;;5032553;28;20947;-72
2023/05/15 02:45:49;;;;;;;10.53;5.57;;;11.30;88.40;;;;;;5040091;28;20525;-74
2023/05/15 02:48:16;;;;;;;8.80;5.30;;;11.30;88.40;;;;;;5037779;28;20437;-73
2023/05/15 02:50:42;;;;;;;9.70;5.50;;;11.40;88.40;;;;;;5033714;28;20482;-75
2023/05/15 02:53:09;;;;;;;9.17;4.83;;;11.40;88.60;;;;;;5042116;28;20459;-73
2023/05/15 02:55:35;;;;;;;8.80;5.00;;;11.50;88.40;;;;;;5048577;28;20484;-73
2023/05/15 02:58:01;;;;;;;8.90;5.07;;;11.60;87.70;;;;;;5042861;28;20422;-74
2023/05/15 03:00:27;;;;;;;7.97;5.30;;;11.60;87.00;;;;;;5040247;28;20513;-74
2023/05/15 03:02:52;;;;;;;5.77;4.20;;;11.50;87.10;;;;;;5033527;28;20546;-73
2023/05/15 03:05:18;;;;;;;8.27;4.80;;;11.50;87.60;;;;;;5034280;28;20304;-73
2023/05/15 03:07:44;;;;;;;7.97;4.50;;;11.60;87.40;;;;;;5039603;28;20250;-73
2023/05/15 03:10:09;;;;;;;8.60;5.17;;;11.60;87.10;;;;;;5038518;28;20188;-74
2023/05/15 03:12:35;;;;;;;8.23;5.17;;;11.60;87.00;;;;;;5029501;28;20212;-74
2023/05/15 03:15:01;;;;;;;8.13;4.53;;;11.60;87.30;;;;;;5033807;28;20192;-73
2023/05/15 03:17:26;;;;;;;8.33;5.40;;;11.60;87.30;;;;;;5033032;28;20915;-73
2023/05/15 03:19:52;;;;;;;10.53;5.13;;;11.70;87.30;;;;;;5034826;28;20280;-73
2023/05/15 03:22:18;;;;;;;8.40;5.70;;;11.70;87.00;;;;;;5030198;28;20216;-73
2023/05/15 03:24:44;;;;;;;8.47;5.70;;;11.60;87.10;;;;;;5042293;28;20279;-74
2023/05/15 03:27:09;;;;;;;10.10;5.27;;;11.70;87.30;;;;;;5033049;28;20192;-74
2023/05/15 03:29:35;;;;;;;10.53;5.50;;;11.80;87.30;;;;;;5032289;28;21118;-74
2023/05/15 03:32:01;;;;;;;10.33;5.27;;;11.80;87.00;;;;;;5028443;28;20287;-74
2023/05/15 03:34:26;;;;;;;8.73;5.13;;;11.80;87.10;;;;;;5029806;28;20575;-73
2023/05/15 03:36:52;;;;;;;6.47;4.27;;;11.90;87.00;;;;;;5033229;28;20648;-73
2023/05/15 03:39:17;;;;;;;8.33;5.50;;;11.90;86.90;;;;;;5042641;28;20200;-73
2023/05/15 03:41:43;;;;;;;10.10;5.80;;;12.00;86.50;;;;;;5036194;28;20209;-74
2023/05/15 03:44:09;;;;;;;8.10;4.77;;;12.00;86.50;;;;;;5039361;28;20291;-74
2023/05/15 03:46:34;;;;;;;9.00;5.07;;;12.00;86.60;;;;;;5033752;28;20192;-73
2023/05/15 03:49:00;;;;;;;7.90;5.60;;;12.10;86.50;;;;;;5044646;28;20192;-74
2023/05/15 03:51:25;;;;;;;8.27;4.90;;;12.00;85.90;;;;;;5043738;28;20213;-73
2023/05/15 03:53:51;;;;;;;10.63;4.80;;;12.10;85.30;;;;;;5047201;28;20275;-74
2023/05/15 03:56:17;;;;;;;10.80;5.50;;;12.10;85.30;;;;;;5044580;28;20308;-75
2023/05/15 03:58:42;;;;;;;8.13;5.10;;;12.20;85.60;;;;;;5050872;28;20181;-73
2023/05/15 04:01:08;;;;;;;8.20;5.10;;;12.30;85.30;;;;;;5048477;28;20185;-73
2023/05/15 04:03:34;;;;;;;7.73;5.30;;;12.30;85.20;;;;;;5044202;28;20253;-74
2023/05/15 04:05:59;;;;;;;8.53;5.37;;;12.30;84.70;;;;;;5050080;28;20262;-72
2023/05/15 04:08:25;;;;;;;9.90;5.83;;;12.30;84.00;;;;;;5049856;28;20559;-72
2023/05/15 04:10:51;;;;;;;8.73;4.80;;;12.40;83.10;;;;;;5034302;28;20271;-74
2023/05/15 04:13:16;;;;;;;7.00;4.70;;;12.50;83.10;;;;;;5033697;28;20196;-73
2023/05/15 04:15:42;;;;;;;12.80;5.77;;;12.50;83.10;;;;;;5038252;28;20188;-74
2023/05/15 04:18:08;;;;;;;9.20;5.00;;;12.60;82.80;;;;;;5039878;28;20192;-74
2023/05/15 04:20:33;;;;;;;9.23;5.37;;;12.70;83.10;;;;;;5031225;28;20192;-73
2023/05/15 04:22:59;;;;;;;9.47;5.33;;;12.80;83.40;;;;;;5027790;28;20212;-73
2023/05/15 04:25:26;;;;;;;7.33;5.23;;;12.90;82.20;;;;;;5032069;28;20207;-73
2023/05/15 04:27:52;;;;;;;9.53;5.10;;;12.90;81.40;;;;;;5035526;28;20683;-73
2023/05/15 04:30:17;;;;;;;9.87;5.90;;;12.90;81.50;;;;;;5031304;28;20430;-73
2023/05/15 04:32:43;;;;;;;6.57;5.13;;;12.80;81.70;;;;;;5032720;28;20474;-73
2023/05/15 04:35:14;;;;;;;8.90;5.90;;;12.80;81.90;;;;;;5040623;28;20251;-74
2023/05/15 04:37:40;;;;;;;10.20;5.80;;;13.00;81.40;;;;;;5037396;28;20189;-75
2023/05/15 04:40:07;;;;;;;10.07;6.33;;;12.90;81.20;;;;;;5046851;28;20526;-73
2023/05/15 04:42:33;;;;;;;10.23;6.57;;;12.90;81.50;;;;;;5038558;28;20892;-74
2023/05/15 04:44:59;;;;;;;7.80;5.50;;;13.00;81.50;;;;;;5035541;28;20471;-74
2023/05/15 04:47:25;;;;;;;7.30;5.30;;;12.90;81.50;;;;;;5033942;28;20939;-74
2023/05/15 04:49:50;;;;;;;8.00;5.50;;;13.10;81.50;;;;;;5036884;28;20549;-74
2023/05/15 04:52:16;;;;;;;10.30;6.13;;;13.10;81.10;;;;;;5031588;28;20216;-75
2023/05/15 04:54:42;;;;;;;10.60;6.43;;;13.30;81.10;;;;;;5036381;28;20257;-73
2023/05/15 04:57:08;;;;;;;11.67;5.97;;;13.40;80.20;;;;;;5031475;28;20963;-75
2023/05/15 04:59:34;;;;;;;8.80;5.70;;;13.30;80.30;;;;;;5037380;28;20720;-74
2023/05/15 05:02:01;;;;;;;8.93;5.70;;;13.40;80.80;;;;;;5030464;28;20213;-74
2023/05/15 05:04:27;;;;;;;9.23;6.33;;;13.60;80.50;;;;;;5031686;28;20462;-75
2023/05/15 05:06:52;;;;;;;8.80;5.67;;;13.70;79.90;;;;;;5035271;28;20419;-75
2023/05/15 05:09:19;;;;;;;9.97;5.87;;;13.70;79.50;;;;;;5037280;28;20593;-74
2023/05/15 05:11:45;;;;;;;9.23;5.73;;;13.80;79.60;;;;;;5028206;28;20217;-75
2023/05/15 05:14:12;;;;;;;15.00;7.57;;;13.90;79.30;;;;;;5032064;28;20438;-74
2023/05/15 05:16:37;;;;;;;9.07;6.40;;;13.70;79.00;;;;;;5031529;28;20421;-74
2023/05/15 05:19:04;;;;;;;9.90;6.53;;;13.80;79.60;;;;;;5035397;28;21114;-74
2023/05/15 05:21:30;;;;;;;10.97;6.33;;;13.90;79.60;;;;;;5039383;28;20455;-75
2023/05/15 05:23:56;;;;;;;10.50;7.20;;;14.10;79.30;;;;;;5035503;28;20498;-74
2023/05/15 05:26:22;;;;;;;12.13;8.17;;;14.00;78.70;;;;;;5034255;28;20984;-73
2023/05/15 05:28:48;;;;;;;13.53;7.03;;;14.00;79.00;;;;;;5034328;28;20235;-75
2023/05/15 05:31:14;;;;;;;16.60;7.63;;;14.00;78.60;;;;;;5031305;28;20210;-74
2023/05/15 05:33:39;;;;;;;15.77;7.30;;;13.80;79.30;;;;;;5048507;28;20201;-74
2023/05/15 05:36:05;;;;;;;13.27;8.13;;;13.70;79.30;;;;;;5032260;28;20434;-74
2023/05/15 05:38:31;;;;;;;11.97;7.23;;;13.70;79.90;;;;;;5030745;28;20202;-75
2023/05/15 05:40:57;;;;;;;9.50;6.90;;;13.60;80.50;;;;;;5036027;28;20427;-74
2023/05/15 05:43:25;;;;;;;15.53;7.37;;;13.80;79.90;;;;;;5030471;28;20463;-76
2023/05/15 05:45:51;;;;;;;14.80;8.20;;;13.80;79.90;;;;;;5032281;28;20442;-76
2023/05/15 05:48:17;;;;;;;11.43;7.20;;;13.70;80.00;;;;;;5036873;28;20741;-74
2023/05/15 05:50:42;;;;;;;11.93;7.40;;;13.90;80.20;;;;;;5030822;28;20252;-73
2023/05/15 05:53:08;;;;;;;11.47;7.23;;;14.00;79.60;;;;;;5027743;28;20834;-74
2023/05/15 05:55:34;;;;;;;13.07;7.63;;;14.00;79.20;;;;;;5042471;28;20538;-74
2023/05/15 05:58:00;;;;;;;14.07;8.30;;;13.90;79.00;;;;;;5039747;28;20271;-76
2023/05/15 06:00:26;;;;;;;14.17;8.43;;;14.00;79.30;;;;;;5035467;28;20235;-74
2023/05/15 06:02:58;;;;;;;15.43;8.70;;;14.20;78.10;;;;;;5030114;28;20209;-74
2023/05/15 06:05:27;;;;;;;11.93;7.70;;;14.20;77.40;;;;;;5037422;28;20543;-72
2023/05/15 06:07:53;;;;;;;14.60;8.17;;;14.10;77.80;;;;;;5033423;28;20860;-71
2023/05/15 06:10:19;;;;;;;14.30;8.60;;;14.10;78.00;;;;;;5032189;28;20432;-71
2023/05/15 06:12:45;;;;;;;14.30;8.37;;;14.00;78.00;;;;;;5033163;28;20517;-72
2023/05/15 06:15:11;;;;;;;16.80;9.90;;;14.00;78.10;;;;;;5029288;28;20428;-72
2023/05/15 06:17:37;;;;;;;16.30;9.30;;;13.90;78.70;;;;;;5029665;28;20439;-71
2023/05/15 06:20:07;;;;;;;14.27;8.50;;;13.80;79.30;;;;;;5037413;28;20469;-71
2023/05/15 06:22:33;;;;;;;15.93;8.90;;;13.80;79.50;;;;;;5036390;28;20235;-74
2023/05/15 06:25:01;;;;;;;14.37;8.80;;;13.90;79.00;;;;;;5035705;28;20491;-74
2023/05/15 06:27:28;;;;;;;12.70;8.77;;;14.00;79.00;;;;;;5035075;28;20441;-74
2023/05/15 06:29:53;;;;;;;18.50;9.03;;;14.10;78.70;;;;;;5032316;28;20412;-73
2023/05/15 06:32:19;;;;;;;15.30;9.50;;;14.10;78.90;;;;;;5032207;28;20463;-73
2023/05/15 06:34:44;;;;;;;13.70;7.10;;;14.20;78.60;;;;;;5032685;28;20189;-73
2023/05/15 06:37:10;;;;;;;14.53;8.43;;;14.30;78.30;;;;;;5036513;28;20197;-74
2023/05/15 06:39:36;;;;;;;17.23;9.17;;;14.30;77.80;;;;;;5032086;28;20194;-73
2023/05/15 06:42:02;;;;;;;12.67;7.73;;;14.50;77.80;;;;;;5030754;28;20506;-73
2023/05/15 06:44:29;;;;;;;15.77;8.20;;;14.60;77.40;;;;;;5030241;28;20238;-74
2023/05/15 06:46:55;;;;;;;14.43;8.23;;;14.40;77.10;;;;;;5031844;28;20266;-75
2023/05/15 06:49:21;;;;;;;11.73;7.70;;;14.50;77.10;;;;;;5033096;28;20445;-73
2023/05/15 06:51:46;;;;;;;13.40;8.20;;;14.50;77.40;;;;;;5011110;28;20663;-73
2023/05/15 06:54:12;;;;;;;11.03;7.73;;;14.60;77.30;;;;;;5025981;28;20630;-73
2023/05/15 06:56:38;;;;;;;12.47;7.00;;;14.50;77.40;;;;;;5030378;28;20177;-73
2023/05/15 06:59:04;;;;;;;10.50;7.07;;;14.60;78.00;;;;;;5032448;28;20420;-73
2023/05/15 07:01:30;;;;;;;11.27;7.87;;;14.80;77.40;;;;;;5031911;28;20212;-74
2023/05/15 07:03:56;;;;;;;14.07;7.27;;;14.90;75.50;;;;;;5031968;28;20243;-74
2023/05/15 07:06:22;;;;;;;10.20;6.60;;;14.90;74.90;;;;;;5032661;28;20459;-73
2023/05/15 07:08:48;;;;;;;10.80;6.83;;;14.70;75.40;;;;;;5033878;28;20181;-74
2023/05/15 07:11:14;;;;;;;10.10;6.70;;;14.60;76.10;;;;;;5035612;28;20208;-74
2023/05/15 07:13:40;;;;;;;8.63;6.33;;;14.60;76.20;;;;;;5035713;28;20416;-73
2023/05/15 07:16:05;;;;;;;9.70;6.60;;;14.80;76.10;;;;;;5035317;28;20203;-73
2023/05/15 07:18:31;;;;;;;8.40;6.20;;;14.80;75.50;;;;;;5035567;28;20761;-73
2023/05/15 07:20:57;;;;;;;11.60;7.00;;;14.80;74.80;;;;;;5035706;28;20185;-74
2023/05/15 07:23:22;;;;;;;9.97;6.40;;;14.80;75.10;;;;;;5036536;28;20194;-74
2023/05/15 07:25:48;;;;;;;10.03;6.23;;;14.90;75.70;;;;;;5043013;28;20333;-74
2023/05/15 07:28:14;;;;;;;12.60;7.00;;;15.00;75.40;;;;;;5054352;28;20204;-74
2023/05/15 07:30:40;;;;;;;8.03;5.53;;;15.10;74.80;;;;;;5049152;28;20198;-73
2023/05/15 07:33:05;;;;;;;9.30;6.30;;;15.30;73.60;;;;;;5041927;28;20278;-74
2023/05/15 07:35:31;;;;;;;9.73;5.57;;;15.00;72.60;;;;;;5052973;28;20590;-74
2023/05/15 07:37:57;;;;;;;8.60;5.70;;;15.00;73.30;;;;;;5036742;28;20194;-74
2023/05/15 07:40:22;;;;;;;9.03;5.67;;;15.10;73.00;;;;;;5037033;28;20196;-74
2023/05/15 07:42:48;;;;;;;8.73;5.20;;;15.20;73.00;;;;;;5032148;28;20296;-74
2023/05/15 07:45:13;;;;;;;7.33;5.23;;;15.30;73.30;;;;;;5040995;28;20226;-74
2023/05/15 07:47:48;;;;;;;7.40;5.43;;;15.50;72.30;;;;;;5037851;28;20191;-74
2023/05/15 07:50:15;;;;;;;8.07;5.57;;;15.30;71.40;;;;;;5033883;28;20233;-74
2023/05/15 07:52:41;;;;;;;7.30;4.90;;;15.30;71.70;;;;;;5035930;28;20439;-74
2023/05/15 07:55:08;;;;;;;7.73;5.33;;;15.10;71.30;;;;;;5034595;28;20423;-74
2023/05/15 07:57:34;;;;;;;6.90;5.17;;;15.20;71.70;;;;;;5040295;28;20636;-74
2023/05/15 08:00:01;;;;;;;8.77;5.50;;;15.20;71.80;;;;;;5032034;28;20450;-73
2023/05/15 08:02:27;;;;;;;8.93;5.70;;;15.30;71.70;;;;;;5031453;28;20284;-74
2023/05/15 08:04:52;;;;;;;8.00;5.10;;;15.40;71.70;;;;;;5038380;28;20473;-75
2023/05/15 08:07:18;;;;;;;7.23;5.30;;;15.40;71.60;;;;;;5035996;28;20243;-75
2023/05/15 08:09:43;;;;;;;12.97;5.77;;;15.50;72.00;;;;;;5035074;28;20185;-75
2023/05/15 08:12:16;;;;;;;7.97;5.40;;;15.70;71.30;;;;;;5030416;28;20209;-75
2023/05/15 08:14:42;;;;;;;8.00;5.87;;;15.70;71.30;;;;;;5033297;28;20345;-74
2023/05/15 08:17:07;;;;;;;7.27;5.33;;;15.60;71.30;;;;;;5035492;28;20947;-75
2023/05/15 08:19:33;;;;;;;12.47;6.07;;;15.60;71.70;;;;;;5032360;28;20197;-75
2023/05/15 08:21:58;;;;;;;8.60;5.27;;;15.80;71.10;;;;;;5034017;28;20294;-74
2023/05/15 08:24:24;;;;;;;10.90;5.63;;;15.60;71.10;;;;;;5032643;28;20197;-75
2023/05/15 08:26:50;;;;;;;8.07;5.10;;;15.70;71.10;;;;;;5032842;28;20201;-74
2023/05/15 08:29:16;;;;;;;7.87;4.73;;;15.70;70.40;;;;;;5042316;28;20424;-74
2023/05/15 08:31:42;;;;;;;8.33;5.90;;;15.70;69.80;;;;;;5039327;28;20662;-74
2023/05/15 08:34:07;;;;;;;6.30;4.57;;;15.60;69.80;;;;;;5033749;28;20434;-74
2023/05/15 08:36:33;;;;;;;8.30;5.33;;;15.70;69.70;;;;;;5046146;28;20583;-73
2023/05/15 08:38:58;;;;;;;7.60;5.00;;;16.00;69.50;;;;;;5034608;28;20264;-73
2023/05/15 08:41:32;;;;;;;8.17;4.90;;;16.10;68.60;;;;;;5034161;28;21299;-73
2023/05/15 08:44:01;;;;;;;11.33;4.60;;;16.30;68.80;;;;;;5035026;28;20870;-76
2023/05/15 08:46:27;;;;;;;8.40;5.43;;;16.40;68.30;;;;;;5036285;28;20467;-73
2023/05/15 08:48:55;;;;;;;6.43;5.10;;;16.50;68.50;;;;;;5037659;28;20427;-74
2023/05/15 08:51:22;;;;;;;11.30;5.13;;;16.50;68.80;;;;;;5034553;28;20450;-74
2023/05/15 08:53:48;;;;;;;11.57;5.13;;;16.50;69.20;;;;;;5035785;28;20952;-75
2023/05/15 08:56:14;;;;;;;8.57;5.60;;;16.60;69.40;;;;;;5047223;28;20566;-75
2023/05/15 08:58:40;;;;;;;6.10;4.40;;;16.80;68.00;;;;;;5034309;28;20462;-74
2023/05/15 09:01:07;;;;;;;6.67;4.47;;;16.70;67.30;;;;;;5042607;28;20447;-75
2023/05/15 09:03:32;;;;;;;9.13;4.50;;;16.70;66.90;;;;;;5034179;28;20430;-74
2023/05/15 09:05:58;;;;;;;6.33;5.23;;;16.70;67.00;;;;;;5036873;28;20467;-75
2023/05/15 09:08:24;;;;;;;7.00;5.60;;;16.80;67.00;;;;;;5037288;28;20184;-75
2023/05/15 09:10:52;;;;;;;7.30;5.80;;;16.70;67.60;;;;;;5040541;28;20178;-74
2023/05/15 09:13:17;;;;;;;7.23;5.43;;;16.50;68.20;;;;;;5033381;28;20454;-75
2023/05/15 09:15:46;;;;;;;8.87;5.47;;;16.60;68.50;;;;;;5031586;28;20482;-75
2023/05/15 09:18:13;;;;;;;7.20;5.10;;;16.80;68.60;;;;;;5038606;28;20203;-74
2023/05/15 09:20:39;;;;;;;9.60;6.30;;;16.90;67.70;;;;;;5032769;28;20429;-74
2023/05/15 09:23:23;;;;;;;9.70;5.90;;;16.90;67.50;;;;;;5029329;28;20854;-75
2023/05/15 09:25:51;;;;;;;11.90;6.03;;;16.90;67.90;;;;;;5031281;28;20235;-75
2023/05/15 09:28:43;;;;;;;16.03;6.43;;;17.00;68.30;;;;;;5035148;28;20911;-74
2023/05/15 09:31:10;;;;;;;8.03;5.80;;;16.80;68.30;;;;;;5024377;28;20616;-73
2023/05/15 09:33:38;;;;;;;8.97;6.20;;;16.50;68.90;;;;;;5032769;28;21052;-75
2023/05/15 09:36:05;;;;;;;9.43;6.40;;;16.40;69.40;;;;;;5039060;28;20464;-74
2023/05/15 09:38:41;;;;;;;7.83;5.50;;;16.40;69.10;;;;;;5039195;28;20446;-74
2023/05/15 09:41:07;;;;;;;7.37;5.80;;;16.50;69.20;;;;;;5039459;28;20844;-73
2023/05/15 09:43:37;;;;;;;12.93;6.80;;;16.40;69.20;;;;;;5029484;28;20523;-74
2023/05/15 09:46:03;;;;;;;9.27;6.03;;;16.50;68.50;;;;;;5033674;28;21125;-74
2023/05/15 09:48:30;;;;;;;7.50;5.73;;;16.80;68.60;;;;;;5041021;28;20882;-75
2023/05/15 09:50:56;;;;;;;7.57;5.37;;;17.10;67.70;;;;;;5032104;28;20455;-75
2023/05/15 09:53:23;;;;;;;9.30;5.73;;;17.10;67.20;;;;;;5038770;28;20435;-74
2023/05/15 09:55:49;;;;;;;9.63;6.40;;;17.20;67.30;;;;;;5031550;28;20791;-74
2023/05/15 09:58:17;;;;;;;9.40;5.70;;;17.30;66.90;;;;;;5040506;28;20428;-73
2023/05/15 10:00:44;;;;;;;6.60;5.10;;;17.40;66.90;;;;;;5035348;28;20513;-76
2023/05/15 10:03:10;;;;;;;8.03;5.83;;;17.30;66.40;;;;;;5028535;28;20455;-73
2023/05/15 10:05:37;;;;;;;7.17;5.60;;;17.50;66.40;;;;;;5031888;28;20463;-73
2023/05/15 10:08:03;;;;;;;7.37;4.70;;;17.50;65.80;;;;;;5037386;28;20518;-73
2023/05/15 10:10:29;;;;;;;9.33;5.70;;;18.10;66.90;;;;;;5040246;28;20505;-74
2023/05/15 10:12:58;;;;;;;7.00;5.43;;;18.00;66.40;;;;;;5027933;28;20448;-74
2023/05/15 10:15:24;;;;;;;6.50;5.10;;;17.80;66.30;;;;;;5037114;28;20978;-74
2023/05/15 10:17:51;;;;;;;8.30;5.67;;;17.70;67.30;;;;;;5031603;28;20826;-74
2023/05/15 10:20:20;;;;;;;7.57;4.90;;;17.40;67.30;;;;;;5034524;28;20501;-74
2023/05/15 10:22:49;;;;;;;8.20;5.70;;;17.80;66.70;;;;;;5032361;28;20459;-74
2023/05/15 10:25:22;;;;;;;8.80;5.40;;;17.30;66.30;;;;;;5032390;28;20564;-74
2023/05/15 10:27:50;;;;;;;11.47;5.17;;;17.60;67.20;;;;;;5030523;28;20444;-74
2023/05/15 10:30:16;;;;;;;8.23;6.07;;;18.00;66.70;;;;;;5046968;28;20412;-74
2023/05/15 10:32:43;;;;;;;7.80;5.60;;;18.30;65.30;;;;;;5032944;28;20451;-75
2023/05/15 10:35:12;;;;;;;6.10;5.07;;;18.50;65.40;;;;;;5031358;28;20474;-75
2023/05/15 10:37:39;;;;;;;8.43;5.50;;;18.50;65.30;;;;;;5029939;28;20425;-74
2023/05/15 10:40:08;;;;;;;10.50;5.20;;;19.00;63.40;;;;;;5042352;28;20426;-74
2023/05/15 10:42:35;;;;;;;7.87;5.30;;;18.30;63.20;;;;;;5027908;28;20459;-74
2023/05/15 10:45:01;;;;;;;7.00;4.77;;;17.80;63.50;;;;;;5033841;28;20988;-74
2023/05/15 10:47:29;;;;;;;6.43;5.03;;;18.30;63.40;;;;;;5034730;28;20501;-74
2023/05/15 10:49:56;;;;;;;5.80;4.73;;;18.20;64.20;;;;;;5036130;28;20450;-73
2023/05/15 10:52:22;;;;;;;5.13;4.20;;;18.30;61.00;;;;;;5043871;28;20456;-74
2023/05/15 10:54:48;;;;;;;9.10;4.70;;;18.00;59.30;;;;;;5036080;28;20472;-74
2023/05/15 10:57:14;;;;;;;5.63;3.90;;;17.90;59.20;;;;;;5040627;28;20988;-74
2023/05/15 10:59:43;;;;;;;4.83;3.97;;;18.20;59.60;;;;;;5038359;28;20206;-75
2023/05/15 11:02:19;;;;;;;6.33;5.07;;;18.90;59.30;;;;;;5038963;28;20466;-75
2023/05/15 11:04:45;;;;;;;10.40;4.77;;;18.80;60.40;;;;;;5040099;28;20470;-74
2023/05/15 11:07:15;;;;;;;5.30;4.20;;;19.10;59.50;;;;;;5040242;28;20429;-73
2023/05/15 11:09:41;;;;;;;8.83;4.97;;;19.10;59.60;;;;;;5036511;28;20189;-75
2023/05/15 11:12:10;;;;;;;8.43;5.27;;;19.20;59.70;;;;;;5034973;28;20780;-72
2023/05/15 11:14:38;;;;;;;6.17;4.37;;;19.00;59.90;;;;;;5034660;28;20192;-75
2023/05/15 11:17:06;;;;;;;5.20;4.57;;;18.80;60.00;;;;;;5035179;28;20858;-74
2023/05/15 11:19:36;;;;;;;5.20;4.10;;;18.80;58.50;;;;;;5037422;28;20435;-74
2023/05/15 11:22:07;;;;;;;8.23;4.60;;;18.80;58.90;;;;;;5031537;28;20478;-74
2023/05/15 11:24:53;;;;;;;6.10;4.60;;;18.80;59.10;;;;;;5038681;28;20527;-74
2023/05/15 11:27:30;;;;;;;5.30;4.20;;;19.00;59.90;;;;;;5033349;28;20515;-75
2023/05/15 11:30:21;;;;;;;5.63;4.93;;;19.00;60.90;;;;;;5037732;28;20933;-74
2023/05/15 11:32:46;;;;;;;5.30;4.20;;;19.00;60.10;;;;;;5032670;28;20866;-74
2023/05/15 11:35:38;;;;;;;4.37;3.80;;;18.80;58.80;;;;;;5039591;28;20983;-75
2023/05/15 11:38:17;;;;;;;4.60;3.80;;;19.10;59.70;;;;;;5030787;28;20200;-74
2023/05/15 11:41:18;;;;;;;7.87;4.50;;;19.50;58.80;;;;;;5033353;28;20418;-74
2023/05/15 11:43:45;;;;;;;5.87;4.07;;;19.60;58.20;;;;;;5016946;28;20938;-75
2023/05/15 11:46:12;;;;;;;6.30;4.37;;;19.20;56.50;;;;;;5037005;28;20978;-74
2023/05/15 11:48:40;;;;;;;5.23;4.37;;;19.20;56.80;;;;;;5037281;28;20919;-74
2023/05/15 11:51:21;;;;;;;5.80;4.30;;;19.40;55.80;;;;;;5040473;28;20547;-73
2023/05/15 11:53:50;;;;;;;5.60;5.07;;;20.10;55.00;;;;;;5029102;28;20745;-75
2023/05/15 11:56:23;;;;;;;4.20;3.67;;;20.00;56.50;;;;;;5031092;28;20424;-74
2023/05/15 11:58:57;;;;;;;9.70;4.83;;;19.20;58.90;;;;;;5038717;28;20422;-74
2023/05/15 12:01:23;;;;;;;6.80;4.80;;;19.30;58.90;;;;;;5030356;28;21111;-74
2023/05/15 12:03:49;;;;;;;9.20;4.73;;;18.90;60.30;;;;;;5038665;28;20506;-73
2023/05/15 12:06:15;;;;;;;6.13;4.77;;;19.40;58.10;;;;;;5029553;28;20276;-74
2023/05/15 12:08:41;;;;;;;8.07;5.60;;;19.60;55.70;;;;;;5033121;28;20428;-74
2023/05/15 12:11:07;;;;;;;6.37;4.77;;;19.00;57.80;;;;;;5029801;28;20424;-74
2023/05/15 12:13:33;;;;;;;5.30;4.90;;;18.90;58.80;;;;;;5036165;28;20216;-73
2023/05/15 12:16:00;;;;;;;7.53;4.37;;;18.90;58.70;;;;;;5033581;28;20584;-74
2023/05/15 12:18:26;;;;;;;4.37;3.73;;;19.40;56.50;;;;;;5023963;28;20593;-74
2023/05/15 12:20:52;;;;;;;8.93;4.30;;;19.80;53.80;;;;;;5031748;28;20971;-75
2023/05/15 12:23:20;;;;;;;4.80;4.20;;;20.30;52.20;;;;;;5028281;28;20210;-74
2023/05/15 12:25:48;;;;;;;5.73;4.50;;;20.60;52.80;;;;;;5034290;28;20888;-74
2023/05/15 12:28:14;;;;;;;7.17;5.77;;;20.30;54.00;;;;;;5032263;28;20466;-74
2023/05/15 12:30:41;;;;;;;5.90;4.63;;;19.60;57.00;;;;;;5038221;28;20435;-76
2023/05/15 12:33:09;;;;;;;10.23;5.77;;;19.60;56.90;;;;;;5030498;28;20468;-74
2023/05/15 12:35:48;;;;;;;9.30;4.40;;;19.80;56.50;;;;;;5035200;28;20438;-74
2023/05/15 12:38:15;;;;;;;6.43;4.40;;;20.40;54.50;;;;;;5033266;28;20923;-74
2023/05/15 12:40:43;;;;;;;3.30;3.03;;;20.50;52.20;;;;;;5031511;28;20433;-74
2023/05/15 12:43:09;;;;;;;8.03;4.27;;;20.50;47.80;;;;;;5029782;28;20583;-74
2023/05/15 12:45:38;;;;;;;4.63;3.90;;;20.20;51.20;;;;;;5030829;28;20471;-74